Time;durP1;ratioP1;P1;durP2;ratioP2;P2;SDS_P1;SDS_P2;PMS_P1;PMS_P2;Temp;Humidity;BMP_temperature;BMP_pressure;BME280_temperature;BME280_humidity;BME280_pressure;Samples;Min_cycle;Max_cycle;Signal;HPM_P1;HPM_P2
2021/03/28 06:28:32;;;;;;;4.72;2.28;;;;;;;;;;5097793;22;20049;-73
2021/03/28 06:33:43;;;;;;;4.82;1.90;;;;;;;;;;4875577;22;20092;-72
2021/03/28 06:36:12;;;;;;;4.35;2.35;;;;;;;;;;5033208;28;20034;-72
2021/03/28 06:38:53;;;;;;;6.97;2.45;;;;;;;;;;5033464;28;20022;-72
2021/03/28 06:41:39;;;;;;;4.55;2.38;;;;;;;;;;5018277;28;20025;-72
2021/03/28 06:44:21;;;;;;;7.43;2.30;;;;;;;;;;5019465;28;20029;-72
2021/03/28 06:46:50;;;;;;;6.83;2.57;;;;;;;;;;5036946;28;20032;-72
2021/03/28 06:49:35;;;;;;;8.23;2.45;;;;;;;;;;5037111;28;20575;-72
2021/03/28 06:52:01;;;;;;;7.82;3.30;;;;;;;;;;5018951;28;20028;-72
2021/03/28 06:54:53;;;;;;;5.60;2.53;;;;;;;;;;5018941;28;20091;-72
2021/03/28 06:57:54;;;;;;;10.57;2.90;;;;;;;;;;4982431;28;20040;-71
2021/03/28 07:00:39;;;;;;;6.70;2.70;;;;;;;;;;4978836;28;20030;-73
2021/03/28 07:03:11;;;;;;;11.13;3.13;;;;;;;;;;5036810;28;20036;-72
2021/03/28 07:05:40;;;;;;;5.55;2.20;;;;;;;;;;5019474;28;20052;-70
2021/03/28 07:08:15;;;;;;;7.00;2.40;;;;;;;;;;5036179;28;20025;-70
2021/03/28 07:10:57;;;;;;;8.10;2.50;;;;;;;;;;5036556;28;20021;-70
2021/03/28 07:13:35;;;;;;;6.47;2.92;;;;;;;;;;5036329;28;20029;-68
2021/03/28 07:16:23;;;;;;;5.85;2.75;;;;;;;;;;5036034;28;20027;-70
2021/03/28 07:19:02;;;;;;;6.35;2.83;;;;;;;;;;5036980;28;20376;-70
2021/03/28 07:21:57;;;;;;;5.97;2.92;;;;;;;;;;5036230;28;20112;-73
2021/03/28 07:24:42;;;;;;;9.10;2.53;;;;;;;;;;5015030;28;20041;-71
2021/03/28 07:27:22;;;;;;;7.25;2.53;;;;;;;;;;5018500;28;20028;-71
2021/03/28 07:30:06;;;;;;;7.20;2.45;;;;;;;;;;5036209;28;20021;-70
2021/03/28 07:32:58;;;;;;;6.75;2.70;;;;;;;;;;5035974;28;20052;-70
2021/03/28 07:35:43;;;;;;;6.80;2.60;;;;;;;;;;5031005;28;20041;-70
2021/03/28 07:38:15;;;;;;;5.47;2.28;;;;;;;;;;5036018;28;20477;-71
2021/03/28 07:41:00;;;;;;;5.97;2.50;;;;;;;;;;5023671;28;20091;-68
2021/03/28 07:43:32;;;;;;;5.40;2.58;;;;;;;;;;5028567;28;20052;-69
2021/03/28 07:46:28;;;;;;;7.22;2.65;;;;;;;;;;5042537;28;20534;-69
2021/03/28 07:49:00;;;;;;;5.50;2.17;;;;;;;;;;4967893;28;20122;-70
2021/03/28 07:51:50;;;;;;;5.88;2.50;;;;;;;;;;4962828;28;20030;-69
2021/03/28 07:54:27;;;;;;;11.45;2.92;;;;;;;;;;4947412;28;20035;-69
2021/03/28 07:57:05;;;;;;;6.15;2.40;;;;;;;;;;4961659;28;20062;-70
2021/03/28 07:59:34;;;;;;;5.70;2.95;;;;;;;;;;4947310;28;20042;-71
2021/03/28 08:02:00;;;;;;;4.68;2.30;;;;;;;;;;4947741;28;20086;-69
2021/03/28 08:04:38;;;;;;;3.50;1.90;;;;;;;;;;4962686;28;20039;-70
2021/03/28 08:07:20;;;;;;;4.80;2.15;;;;;;;;;;4954367;28;20083;-70
2021/03/28 08:09:56;;;;;;;6.35;2.08;;;;;;;;;;4960310;28;20490;-69
2021/03/28 08:12:39;;;;;;;4.85;2.05;;;;;;;;;;4938408;29;20031;-69
2021/03/28 08:15:29;;;;;;;4.85;2.50;;;;;;;;;;4939015;29;20040;-71
2021/03/28 08:18:06;;;;;;;6.32;3.00;;;;;;;;;;4954798;28;20023;-69
2021/03/28 08:20:35;;;;;;;7.60;3.15;;;;;;;;;;4936213;29;20031;-71
2021/03/28 08:23:21;;;;;;;8.90;3.10;;;;;;;;;;4937717;29;20031;-69
2021/03/28 08:25:47;;;;;;;7.03;3.30;;;;;;;;;;4995335;28;20030;-70
2021/03/28 08:28:32;;;;;;;7.25;2.60;;;;;;;;;;5055282;28;20490;-69
2021/03/28 08:31:10;;;;;;;6.30;2.85;;;;;;;;;;5036792;28;20375;-69
2021/03/28 08:33:57;;;;;;;9.38;4.10;;;;;;;;;;5055414;28;20045;-68
2021/03/28 08:36:46;;;;;;;11.13;4.95;;;;;;;;;;5033810;28;20036;-73
2021/03/28 08:39:26;;;;;;;11.35;4.57;;;;;;;;;;5041448;28;20028;-71
2021/03/28 08:41:53;;;;;;;6.68;3.25;;;;;;;;;;5028596;28;20040;-71
2021/03/28 08:44:37;;;;;;;10.38;4.43;;;;;;;;;;5055180;28;20151;-72
2021/03/28 08:47:22;;;;;;;5.60;2.55;;;;;;;;;;5054781;28;20498;-72
2021/03/28 08:49:51;;;;;;;8.25;3.05;;;;;;;;;;5045623;28;20518;-71
2021/03/28 08:52:27;;;;;;;6.32;3.10;;;;;;;;;;5043835;28;20083;-70
2021/03/28 08:55:11;;;;;;;6.60;2.85;;;;;;;;;;5041436;28;20080;-70
2021/03/28 08:57:59;;;;;;;7.38;3.08;;;;;;;;;;5038278;28;20032;-71
2021/03/28 09:00:42;;;;;;;8.55;3.15;;;;;;;;;;5016615;28;20018;-69
2021/03/28 09:03:08;;;;;;;8.98;3.17;;;;;;;;;;5027204;28;20041;-73
2021/03/28 09:05:45;;;;;;;7.30;2.78;;;;;;;;;;5043945;28;21431;-71
2021/03/28 09:08:11;;;;;;;14.95;3.25;;;;;;;;;;5036639;28;20380;-70
2021/03/28 09:10:44;;;;;;;10.80;2.55;;;;;;;;;;5044478;28;20379;-70
2021/03/28 09:13:16;;;;;;;9.55;2.33;;;;;;;;;;5043789;28;20357;-70
2021/03/28 09:15:52;;;;;;;10.20;2.75;;;;;;;;;;5039521;28;20361;-71
2021/03/28 09:18:18;;;;;;;6.07;2.90;;;;;;;;;;5021979;28;20024;-72
2021/03/28 09:20:53;;;;;;;8.43;3.75;;;;;;;;;;5025827;28;20447;-72
2021/03/28 09:23:25;;;;;;;8.75;3.50;;;;;;;;;;5024216;28;20025;-73
2021/03/28 09:25:51;;;;;;;;;;;;;;;;;;5055096;28;20021;-68
2021/03/28 09:28:35;;;;;;;15.77;2.90;;;;;;;;;;5040921;28;20275;-68
2021/03/28 09:31:03;;;;;;;28.30;5.63;;;;;;;;;;5034292;28;20044;-72
2021/03/28 09:33:30;;;;;;;16.38;4.75;;;;;;;;;;5028089;28;20071;-72
2021/03/28 09:36:11;;;;;;;21.42;5.28;;;;;;;;;;5025056;28;20033;-69
2021/03/28 09:39:12;;;;;;;9.90;2.17;;;;;;;;;;5038410;28;20476;-68
2021/03/28 09:41:42;;;;;;;5.40;2.55;;;;;;;;;;5009533;28;20037;-70
2021/03/28 09:44:18;;;;;;;7.18;2.88;;;;;;;;;;5022181;28;20480;-68
2021/03/28 09:47:17;;;;;;;10.80;2.92;;;;;;;;;;5035201;28;20405;-68
2021/03/28 09:49:51;;;;;;;7.32;3.33;;;;;;;;;;4982555;28;20042;-70
2021/03/28 09:52:37;;;;;;;6.93;3.30;;;;;;;;;;4974656;28;20035;-70
2021/03/28 09:55:23;;;;;;;9.90;3.30;;;;;;;;;;4959705;28;20039;-68
2021/03/28 09:57:55;;;;;;;7.25;3.40;;;;;;;;;;4944342;28;20374;-68
2021/03/28 10:00:52;;;;;;;6.80;3.13;;;;;;;;;;4961903;28;20402;-68
2021/03/28 10:03:27;;;;;;;6.20;3.40;;;;;;;;;;4886152;29;20492;-68
2021/03/28 10:06:04;;;;;;;8.25;4.32;;;;;;;;;;4861457;29;20037;-69
2021/03/28 10:08:52;;;;;;;7.53;3.42;;;;;;;;;;4901309;29;20076;-70
2021/03/28 10:11:27;;;;;;;5.93;2.90;;;;;;;;;;4879300;29;20033;-70
2021/03/28 10:13:58;;;;;;;15.18;3.67;;;;;;;;;;4879699;29;20444;-69
2021/03/28 10:16:51;;;;;;;8.73;3.58;;;;;;;;;;4895321;29;20056;-71
2021/03/28 10:19:29;;;;;;;13.85;3.30;;;;;;;;;;4895296;29;20040;-68
2021/03/28 10:22:06;;;;;;;9.45;3.95;;;;;;;;;;4895500;29;20063;-69
2021/03/28 10:24:52;;;;;;;14.68;3.13;;;;;;;;;;4908423;28;20118;-68
2021/03/28 10:27:20;;;;;;;8.27;3.38;;;;;;;;;;4956906;28;20058;-69
2021/03/28 10:29:55;;;;;;;10.35;3.60;;;;;;;;;;4952282;29;20363;-66
2021/03/28 10:32:23;;;;;;;8.07;3.50;;;;;;;;;;4935762;28;20520;-69
2021/03/28 10:34:59;;;;;;;8.52;4.15;;;;;;;;;;4944139;28;20034;-66
2021/03/28 10:37:53;;;;;;;5.97;3.25;;;;;;;;;;4933018;29;20496;-69
2021/03/28 10:40:28;;;;;;;9.50;3.80;;;;;;;;;;4978377;28;20037;-76
2021/03/28 10:43:09;;;;;;;6.38;3.00;;;;;;;;;;4993416;28;20101;-76
2021/03/28 10:45:36;;;;;;;7.85;3.08;;;;;;;;;;4992779;28;20027;-74
2021/03/28 10:48:11;;;;;;;6.97;3.50;;;;;;;;;;5011684;28;20036;-74
2021/03/28 10:50:40;;;;;;;11.10;3.88;;;;;;;;;;5018181;28;20503;-72
2021/03/28 10:53:41;;;;;;;8.73;3.83;;;;;;;;;;5021546;28;20100;-72
2021/03/28 10:56:26;;;;;;;10.38;3.70;;;;;;;;;;4988411;28;20022;-72
2021/03/28 10:59:01;;;;;;;4.45;2.92;;;;;;;;;;5020561;28;20030;-74
2021/03/28 11:01:46;;;;;;;6.28;3.05;;;;;;;;;;5030934;28;20435;-71
2021/03/28 11:04:21;;;;;;;6.18;2.72;;;;;;;;;;5026286;28;20029;-72
2021/03/28 11:07:11;;;;;;;6.75;3.35;;;;;;;;;;5003057;28;20473;-72
2021/03/28 11:09:57;;;;;;;6.25;3.47;;;;;;;;;;4991982;28;20026;-73
2021/03/28 11:12:35;;;;;;;6.70;3.17;;;;;;;;;;4991953;28;20033;-74
2021/03/28 11:15:17;;;;;;;4.65;2.67;;;;;;;;;;4993403;28;20105;-73
2021/03/28 11:18:02;;;;;;;6.53;3.08;;;;;;;;;;4992397;28;20445;-71
2021/03/28 11:20:49;;;;;;;4.57;2.67;;;;;;;;;;4998004;28;20028;-68
2021/03/28 11:23:16;;;;;;;4.20;2.20;;;;;;;;;;5013353;28;20026;-72
2021/03/28 11:26:01;;;;;;;5.15;2.30;;;;;;;;;;5015733;28;20022;-75
2021/03/28 11:28:51;;;;;;;5.82;2.88;;;;;;;;;;5021299;28;20099;-76
2021/03/28 11:31:17;;;;;;;4.03;1.85;;;;;;;;;;5022449;28;20018;-76
2021/03/28 11:33:56;;;;;;;4.13;2.00;;;;;;;;;;5015461;28;20131;-76
2021/03/28 11:36:25;;;;;;;4.85;2.00;;;;;;;;;;5015534;28;20037;-77
2021/03/28 11:39:10;;;;;;;5.00;2.47;;;;;;;;;;5016665;28;20468;-78
2021/03/28 11:41:47;;;;;;;4.95;2.40;;;;;;;;;;5015393;28;20170;-83
2021/03/28 11:44:16;;;;;;;4.38;2.13;;;;;;;;;;5015957;28;20033;-72
2021/03/28 11:46:58;;;;;;;5.28;1.80;;;;;;;;;;5016129;28;20358;-78
2021/03/28 11:49:26;;;;;;;4.40;2.08;;;;;;;;;;5015182;28;20021;-76
2021/03/28 11:51:52;;;;;;;5.03;1.90;;;;;;;;;;5024859;28;20030;-74
2021/03/28 11:54:20;;;;;;;6.05;2.60;;;;;;;;;;5023926;28;20750;-81
2021/03/28 11:56:49;;;;;;;8.68;2.88;;;;;;;;;;5024605;28;20025;-80
2021/03/28 11:59:22;;;;;;;10.55;3.40;;;;;;;;;;5022591;28;20068;-85
2021/03/28 12:01:58;;;;;;;12.18;2.92;;;;;;;;;;5024687;28;20105;-90
2021/03/28 12:04:31;;;;;;;5.53;2.03;;;;;;;;;;5026032;28;20027;-82
2021/03/28 12:06:57;;;;;;;;;;;;;;;;;;5025921;28;20029;-83
2021/03/28 12:09:26;;;;;;;5.72;2.03;;;;;;;;;;5027195;28;19997;-71
2021/03/28 12:11:53;;;;;;;12.13;3.65;;;;;;;;;;5013718;28;20099;-71
2021/03/28 12:14:24;;;;;;;14.15;3.28;;;;;;;;;;5017792;28;20429;-71
2021/03/28 12:17:09;;;;;;;6.38;2.35;;;;;;;;;;5012415;28;20033;-75
2021/03/28 12:19:55;;;;;;;10.32;2.97;;;;;;;;;;5014503;28;20061;-68
2021/03/28 12:22:40;;;;;;;6.40;2.58;;;;;;;;;;4995887;28;20097;-70
2021/03/28 12:25:18;;;;;;;5.00;1.80;;;;;;;;;;5014136;28;20113;-70
2021/03/28 12:27:56;;;;;;;9.82;2.22;;;;;;;;;;5015669;28;20017;-70
2021/03/28 12:30:30;;;;;;;5.15;1.83;;;;;;;;;;5015521;28;20026;-69
2021/03/28 12:32:59;;;;;;;5.90;1.83;;;;;;;;;;5014112;28;20096;-69
2021/03/28 12:35:29;;;;;;;7.10;2.55;;;;;;;;;;5014346;28;20080;-71
2021/03/28 12:37:56;;;;;;;5.63;2.25;;;;;;;;;;5015197;28;20017;-71
2021/03/28 12:40:26;;;;;;;6.10;2.70;;;;;;;;;;5014258;28;20465;-69
2021/03/28 12:42:52;;;;;;;4.80;2.00;;;;;;;;;;5014190;28;20022;-69
2021/03/28 12:45:19;;;;;;;6.38;3.17;;;;;;;;;;5015211;28;20042;-71
2021/03/28 12:47:47;;;;;;;5.57;2.22;;;;;;;;;;5015041;28;20026;-71
2021/03/28 12:50:13;;;;;;;5.65;2.20;;;;;;;;;;5013784;28;20030;-70
2021/03/28 12:52:53;;;;;;;5.53;2.30;;;;;;;;;;5018534;28;20030;-71
2021/03/28 12:55:28;;;;;;;9.95;4.70;;;;;;;;;;5016836;28;20036;-70
2021/03/28 12:57:56;;;;;;;9.23;3.17;;;;;;;;;;5015424;28;20026;-74
2021/03/28 13:00:34;;;;;;;38.60;17.02;;;;;;;;;;5015605;28;20074;-73
2021/03/28 13:03:10;;;;;;;5.57;2.42;;;;;;;;;;5015472;28;20358;-73
2021/03/28 13:05:37;;;;;;;4.07;1.60;;;;;;;;;;5021432;28;20029;-75
2021/03/28 13:08:10;;;;;;;6.43;2.53;;;;;;;;;;5019525;28;20018;-76
2021/03/28 13:10:38;;;;;;;3.53;1.50;;;;;;;;;;5025134;28;20385;-75
2021/03/28 13:13:17;;;;;;;5.55;2.28;;;;;;;;;;5018048;28;20033;-75
2021/03/28 13:15:44;;;;;;;7.72;2.15;;;;;;;;;;5016624;28;20216;-75
2021/03/28 13:18:23;;;;;;;4.03;1.52;;;;;;;;;;5020855;28;20021;-76
2021/03/28 13:20:56;;;;;;;7.10;2.55;;;;;;;;;;5020077;28;20021;-75
2021/03/28 13:23:22;;;;;;;4.70;2.15;;;;;;;;;;5018361;28;20486;-73
2021/03/28 13:26:05;;;;;;;5.13;2.00;;;;;;;;;;5022179;28;20496;-75
2021/03/28 13:28:31;;;;;;;;;;;;;;;;;;5021340;28;20021;-75
2021/03/28 13:31:17;;;;;;;4.45;1.40;;;;;;;;;;5021785;28;19996;-77
2021/03/28 13:33:47;;;;;;;4.43;1.23;;;;;;;;;;5018342;28;20070;-75
2021/03/28 13:36:13;;;;;;;5.95;2.00;;;;;;;;;;5023995;28;20472;-70
2021/03/28 13:38:40;;;;;;;8.55;2.80;;;;;;;;;;5034177;28;20033;-69
2021/03/28 13:41:14;;;;;;;8.57;2.63;;;;;;;;;;5033916;28;20029;-70
2021/03/28 13:43:40;;;;;;;6.65;1.88;;;;;;;;;;5032917;28;20033;-69
2021/03/28 13:46:11;;;;;;;4.43;1.80;;;;;;;;;;5033534;28;20376;-70
2021/03/28 13:48:38;;;;;;;3.10;1.38;;;;;;;;;;5034386;28;20457;-69
2021/03/28 13:51:21;;;;;;;2.00;1.10;;;;;;;;;;5031951;28;20152;-69
2021/03/28 13:54:05;;;;;;;5.28;1.88;;;;;;;;;;5033543;28;20033;-70
2021/03/28 13:56:35;;;;;;;4.63;1.60;;;;;;;;;;5034144;28;20057;-69
2021/03/28 13:59:08;;;;;;;2.90;1.42;;;;;;;;;;5033905;28;20024;-69
2021/03/28 14:01:34;;;;;;;;;;;;;;;;;;5033984;28;20022;-70
2021/03/28 14:04:15;;;;;;;5.15;2.47;;;;;;;;;;5033585;28;20393;-70
2021/03/28 14:06:42;;;;;;;12.02;4.55;;;;;;;;;;5032208;28;20032;-70
2021/03/28 14:09:09;;;;;;;6.93;1.92;;;;;;;;;;5033456;28;20090;-70
2021/03/28 14:11:51;;;;;;;5.82;2.20;;;;;;;;;;5033326;28;20380;-69
2021/03/28 14:14:26;;;;;;;4.80;1.80;;;;;;;;;;5033713;28;20064;-70
2021/03/28 14:16:53;;;;;;;3.20;1.50;;;;;;;;;;5034072;28;20014;-70
2021/03/28 14:19:23;;;;;;;3.50;1.38;;;;;;;;;;5032240;28;20029;-70
2021/03/28 14:21:49;;;;;;;4.28;1.52;;;;;;;;;;5033035;28;20018;-70
2021/03/28 14:24:15;;;;;;;5.57;1.65;;;;;;;;;;5033580;28;20036;-72
2021/03/28 14:26:47;;;;;;;3.65;1.75;;;;;;;;;;5032881;28;20036;-69
2021/03/28 14:29:32;;;;;;;4.45;1.70;;;;;;;;;;5030978;28;20080;-69
2021/03/28 14:31:59;;;;;;;5.15;1.85;;;;;;;;;;5033309;28;20032;-71
2021/03/28 14:34:27;;;;;;;5.40;2.10;;;;;;;;;;5033258;28;20467;-70
2021/03/28 14:37:00;;;;;;;7.05;1.98;;;;;;;;;;5032913;28;20529;-71
2021/03/28 14:39:38;;;;;;;5.57;1.67;;;;;;;;;;5020714;28;20026;-75
2021/03/28 14:42:08;;;;;;;7.28;1.90;;;;;;;;;;5008919;28;20420;-71
2021/03/28 14:44:44;;;;;;;8.38;3.75;;;;;;;;;;5011207;28;20037;-72
2021/03/28 14:47:11;;;;;;;8.48;3.10;;;;;;;;;;5010728;28;20021;-71
2021/03/28 14:49:43;;;;;;;5.72;2.20;;;;;;;;;;5010668;28;20026;-72
2021/03/28 14:52:12;;;;;;;6.65;2.72;;;;;;;;;;5010535;28;20029;-71
2021/03/28 14:54:59;;;;;;;6.88;2.65;;;;;;;;;;5010933;28;20042;-72
2021/03/28 14:57:40;;;;;;;7.43;2.40;;;;;;;;;;5008603;28;20137;-71
2021/03/28 15:00:08;;;;;;;10.13;2.63;;;;;;;;;;5009609;28;20081;-73
2021/03/28 15:02:50;;;;;;;7.35;2.35;;;;;;;;;;5012487;28;20041;-71
2021/03/28 15:05:28;;;;;;;8.27;3.13;;;;;;;;;;5012093;28;20030;-71
2021/03/28 15:07:58;;;;;;;4.45;2.22;;;;;;;;;;5016252;28;20469;-72
2021/03/28 15:10:50;;;;;;;9.00;2.47;;;;;;;;;;5016970;28;20022;-71
2021/03/28 15:13:30;;;;;;;4.23;1.80;;;;;;;;;;5013470;28;20495;-70
2021/03/28 15:15:56;;;;;;;5.57;2.47;;;;;;;;;;5015811;28;20323;-72
2021/03/28 15:18:41;;;;;;;4.72;2.10;;;;;;;;;;5015153;28;20036;-72
2021/03/28 15:21:11;;;;;;;7.13;3.15;;;;;;;;;;5007152;28;20030;-72
2021/03/28 15:23:52;;;;;;;8.68;3.40;;;;;;;;;;5013243;28;20129;-71
2021/03/28 15:26:41;;;;;;;10.55;3.45;;;;;;;;;;5013181;28;20033;-71
2021/03/28 15:29:13;;;;;;;5.95;2.67;;;;;;;;;;5014643;28;20469;-70
2021/03/28 15:31:58;;;;;;;8.82;2.70;;;;;;;;;;5012680;28;20087;-71
2021/03/28 15:34:39;;;;;;;7.43;2.97;;;;;;;;;;5017733;28;20124;-70
2021/03/28 15:37:14;;;;;;;6.43;2.60;;;;;;;;;;5036008;28;20104;-71
2021/03/28 15:40:03;;;;;;;5.80;2.55;;;;;;;;;;5036131;28;20021;-71
2021/03/28 15:42:37;;;;;;;5.18;2.40;;;;;;;;;;4999400;28;20476;-71
2021/03/28 15:45:06;;;;;;;6.40;2.50;;;;;;;;;;5034783;28;20140;-74
2021/03/28 15:47:52;;;;;;;5.53;2.53;;;;;;;;;;5017846;28;20484;-72
2021/03/28 15:50:44;;;;;;;7.07;2.53;;;;;;;;;;5043865;28;20457;-72
2021/03/28 15:53:14;;;;;;;8.55;3.20;;;;;;;;;;5021023;28;20554;-71
2021/03/28 15:55:43;;;;;;;9.52;3.15;;;;;;;;;;5040883;28;20045;-72
2021/03/28 15:58:28;;;;;;;8.57;2.80;;;;;;;;;;5041167;28;20108;-72
2021/03/28 16:00:57;;;;;;;5.95;2.75;;;;;;;;;;5023221;28;20025;-72
2021/03/28 16:03:42;;;;;;;7.75;2.40;;;;;;;;;;5041607;28;20030;-72
2021/03/28 16:06:18;;;;;;;5.85;2.33;;;;;;;;;;5039538;28;20067;-72
2021/03/28 16:09:03;;;;;;;6.15;2.53;;;;;;;;;;5043928;28;20009;-72
2021/03/28 16:11:47;;;;;;;8.27;3.25;;;;;;;;;;5047051;28;20028;-73
2021/03/28 16:14:26;;;;;;;8.80;3.60;;;;;;;;;;5023944;28;20033;-73
2021/03/28 16:17:11;;;;;;;7.07;2.60;;;;;;;;;;5030640;28;20380;-70
2021/03/28 16:19:40;;;;;;;6.78;2.60;;;;;;;;;;5024396;28;20025;-70
2021/03/28 16:22:12;;;;;;;8.60;3.10;;;;;;;;;;5022249;28;20048;-71
2021/03/28 16:25:01;;;;;;;9.07;4.88;;;;;;;;;;5018260;28;20053;-71
2021/03/28 16:27:27;;;;;;;9.98;4.70;;;;;;;;;;5015481;28;20034;-70
2021/03/28 16:30:12;;;;;;;11.40;5.03;;;;;;;;;;5012607;28;20447;-71
2021/03/28 16:32:57;;;;;;;25.25;12.30;;;;;;;;;;5014481;28;20049;-69
2021/03/28 16:35:59;;;;;;;7.80;3.45;;;;;;;;;;5012537;28;20396;-70
2021/03/28 16:38:27;;;;;;;10.57;3.67;;;;;;;;;;5001480;28;20025;-70
2021/03/28 16:40:58;;;;;;;9.55;3.88;;;;;;;;;;5033281;28;20036;-69
2021/03/28 16:43:30;;;;;;;14.98;6.22;;;;;;;;;;5033012;28;20120;-68
2021/03/28 16:46:05;;;;;;;8.57;4.68;;;;;;;;;;5014082;28;20087;-70
2021/03/28 16:48:44;;;;;;;7.82;3.45;;;;;;;;;;5015055;28;20033;-67
2021/03/28 16:51:19;;;;;;;8.27;5.22;;;;;;;;;;5029857;28;21626;-68
2021/03/28 16:53:48;;;;;;;8.98;3.30;;;;;;;;;;5027802;28;20033;-70
2021/03/28 16:56:15;;;;;;;10.30;4.22;;;;;;;;;;5027567;28;20021;-67
2021/03/28 16:58:52;;;;;;;7.80;3.63;;;;;;;;;;5026260;28;20060;-67
2021/03/28 17:01:37;;;;;;;8.57;3.95;;;;;;;;;;5036723;28;20564;-66
2021/03/28 17:04:15;;;;;;;5.72;3.00;;;;;;;;;;5027223;28;20484;-67
2021/03/28 17:06:45;;;;;;;7.65;4.07;;;;;;;;;;5035335;28;20052;-68
2021/03/28 17:09:22;;;;;;;7.45;3.40;;;;;;;;;;5040168;28;20051;-67
2021/03/28 17:11:55;;;;;;;10.82;4.00;;;;;;;;;;5037415;28;20026;-71
2021/03/28 17:14:31;;;;;;;10.43;4.18;;;;;;;;;;5016410;28;20564;-69
2021/03/28 17:17:15;;;;;;;12.10;4.00;;;;;;;;;;5032676;28;20022;-67
2021/03/28 17:19:43;;;;;;;6.97;3.47;;;;;;;;;;5031937;28;20098;-70
2021/03/28 17:22:28;;;;;;;11.43;4.68;;;;;;;;;;5032567;28;20028;-71
2021/03/28 17:25:27;;;;;;;11.43;5.63;;;;;;;;;;5029373;28;20129;-68
2021/03/28 17:28:08;;;;;;;9.75;4.78;;;;;;;;;;5008876;28;20025;-69
2021/03/28 17:30:48;;;;;;;14.38;5.63;;;;;;;;;;5032499;28;20025;-70
2021/03/28 17:33:44;;;;;;;12.80;6.95;;;;;;;;;;5033431;28;20480;-70
2021/03/28 17:36:16;;;;;;;23.67;10.98;;;;;;;;;;5020396;28;20076;-67
2021/03/28 17:38:42;;;;;;;;;;;;;;;;;;5033943;28;20025;-70
2021/03/28 17:41:08;;;;;;;25.83;10.90;;;;;;;;;;5016462;28;19955;-71
2021/03/28 17:43:45;;;;;;;20.02;9.18;;;;;;;;;;5016578;28;20029;-69
2021/03/28 17:46:11;;;;;;;29.92;13.63;;;;;;;;;;5034933;28;20022;-68
2021/03/28 17:48:40;;;;;;;24.20;10.25;;;;;;;;;;5034070;28;20103;-69
2021/03/28 17:51:11;;;;;;;58.28;25.80;;;;;;;;;;5033155;28;20036;-71
2021/03/28 17:53:39;;;;;;;21.03;10.70;;;;;;;;;;5041436;28;20033;-69
2021/03/28 17:56:08;;;;;;;53.88;20.42;;;;;;;;;;5033671;28;20040;-68
2021/03/28 17:58:54;;;;;;;30.52;15.75;;;;;;;;;;5034817;28;20474;-68
2021/03/28 18:01:23;;;;;;;35.30;14.63;;;;;;;;;;5041664;28;20102;-67
2021/03/28 18:03:50;;;;;;;24.63;11.25;;;;;;;;;;5037821;28;20528;-67
2021/03/28 18:06:21;;;;;;;21.30;10.13;;;;;;;;;;5033133;28;20021;-67
2021/03/28 18:08:48;;;;;;;42.17;17.42;;;;;;;;;;5035785;28;20476;-69
2021/03/28 18:11:26;;;;;;;22.05;9.82;;;;;;;;;;5050891;28;20050;-68
2021/03/28 18:14:03;;;;;;;20.05;8.10;;;;;;;;;;5047953;28;20025;-67
2021/03/28 18:16:29;;;;;;;19.88;8.35;;;;;;;;;;5038806;28;20037;-68
2021/03/28 18:18:59;;;;;;;23.90;10.27;;;;;;;;;;5021108;28;20026;-67
2021/03/28 18:21:25;;;;;;;25.05;11.48;;;;;;;;;;5021114;28;20044;-65
2021/03/28 18:23:52;;;;;;;19.42;9.18;;;;;;;;;;5017024;28;20033;-67
2021/03/28 18:26:40;;;;;;;26.70;11.60;;;;;;;;;;5033050;28;20029;-67
2021/03/28 18:29:13;;;;;;;19.02;9.00;;;;;;;;;;5032357;28;20369;-66
2021/03/28 18:31:53;;;;;;;19.92;8.45;;;;;;;;;;5035052;28;20059;-68
2021/03/28 18:34:27;;;;;;;20.67;9.00;;;;;;;;;;5033987;28;20050;-67
2021/03/28 18:36:53;;;;;;;15.50;7.47;;;;;;;;;;5035516;28;20029;-67
2021/03/28 18:39:39;;;;;;;17.98;7.93;;;;;;;;;;5037367;28;20350;-67
2021/03/28 18:42:09;;;;;;;17.83;7.68;;;;;;;;;;5041745;28;20017;-66
2021/03/28 18:44:37;;;;;;;24.35;12.68;;;;;;;;;;5037328;28;20030;-70
2021/03/28 18:47:03;;;;;;;17.67;9.40;;;;;;;;;;5035423;28;20018;-66
2021/03/28 18:49:40;;;;;;;21.25;9.48;;;;;;;;;;5037756;28;20607;-67
2021/03/28 18:52:06;;;;;;;21.77;9.05;;;;;;;;;;5034755;28;20099;-69
2021/03/28 18:54:32;;;;;;;17.85;8.25;;;;;;;;;;5018772;28;20036;-68
2021/03/28 18:57:07;;;;;;;21.60;9.85;;;;;;;;;;5036832;28;20026;-68
2021/03/28 18:59:37;;;;;;;23.88;9.52;;;;;;;;;;5038725;28;20023;-70
2021/03/28 19:02:20;;;;;;;28.15;12.10;;;;;;;;;;5021430;28;20021;-68
2021/03/28 19:04:46;;;;;;;24.70;10.88;;;;;;;;;;5039316;28;20104;-70
2021/03/28 19:07:21;;;;;;;21.08;9.55;;;;;;;;;;5016658;28;20014;-69
2021/03/28 19:09:54;;;;;;;24.75;10.02;;;;;;;;;;5014148;28;20465;-70
2021/03/28 19:12:26;;;;;;;24.63;10.65;;;;;;;;;;5021715;28;20121;-72
2021/03/28 19:15:07;;;;;;;21.13;10.23;;;;;;;;;;5036536;28;20033;-68
2021/03/28 19:17:34;;;;;;;21.13;9.82;;;;;;;;;;5044891;28;20096;-68
2021/03/28 19:20:12;;;;;;;20.00;10.07;;;;;;;;;;5048266;28;20148;-69
2021/03/28 19:22:40;;;;;;;19.55;10.38;;;;;;;;;;5043742;28;20111;-68
2021/03/28 19:25:16;;;;;;;20.83;9.95;;;;;;;;;;5048574;28;20480;-71
2021/03/28 19:27:48;;;;;;;23.73;10.27;;;;;;;;;;5040521;28;20029;-70
2021/03/28 19:30:29;;;;;;;24.15;11.82;;;;;;;;;;5038824;28;20034;-68
2021/03/28 19:32:59;;;;;;;24.83;11.48;;;;;;;;;;5035190;28;20570;-70
2021/03/28 19:35:27;;;;;;;20.98;10.63;;;;;;;;;;5035662;28;20076;-71
2021/03/28 19:38:20;;;;;;;22.70;10.27;;;;;;;;;;5035578;28;20025;-70
2021/03/28 19:40:47;;;;;;;23.30;11.45;;;;;;;;;;5031576;28;20116;-70
2021/03/28 19:43:25;;;;;;;21.52;11.13;;;;;;;;;;5038456;28;20013;-70
2021/03/28 19:49:13;;;;;;;29.13;13.82;;;;;;;;;;5002854;28;20044;-73
2021/03/28 19:51:43;;;;;;;26.02;12.32;;;;;;;;;;5018664;28;20022;-70
2021/03/28 19:54:14;;;;;;;27.63;13.15;;;;;;;;;;5022075;28;20033;-72
2021/03/28 19:57:07;;;;;;;30.90;13.90;;;;;;;;;;5037039;28;20097;-71
2021/03/28 19:59:38;;;;;;;29.75;13.98;;;;;;;;;;5015222;28;20048;-69
2021/03/28 20:02:05;;;;;;;30.30;13.70;;;;;;;;;;5041280;28;20542;-70
2021/03/28 20:04:50;;;;;;;27.95;12.80;;;;;;;;;;5036622;28;20490;-71
2021/03/28 20:07:16;;;;;;;33.50;16.15;;;;;;;;;;5033666;28;20404;-69
2021/03/28 20:09:42;;;;;;;33.60;14.05;;;;;;;;;;5016944;28;20045;-70
2021/03/28 20:12:08;;;;;;;32.97;12.60;;;;;;;;;;5016198;28;20029;-71
2021/03/28 20:14:34;;;;;;;23.88;11.02;;;;;;;;;;5016233;28;20465;-71
2021/03/28 20:17:01;;;;;;;23.35;10.25;;;;;;;;;;5034896;28;20071;-74
2021/03/28 20:19:30;;;;;;;21.88;10.02;;;;;;;;;;5016605;28;20029;-72
2021/03/28 20:22:09;;;;;;;24.02;10.05;;;;;;;;;;5032776;28;20556;-69
2021/03/28 20:24:46;;;;;;;24.35;10.15;;;;;;;;;;5023488;28;20034;-68
2021/03/28 20:27:17;;;;;;;27.92;11.65;;;;;;;;;;5005542;28;20021;-70
2021/03/28 20:29:46;;;;;;;26.20;10.88;;;;;;;;;;5023189;28;20088;-69
2021/03/28 20:32:12;;;;;;;28.83;12.40;;;;;;;;;;5023287;28;20022;-71
2021/03/28 20:34:39;;;;;;;35.25;11.95;;;;;;;;;;5023875;28;20041;-71
2021/03/28 20:37:13;;;;;;;32.20;12.30;;;;;;;;;;5033968;28;20032;-70
2021/03/28 20:39:40;;;;;;;23.38;9.55;;;;;;;;;;5025064;28;20026;-73
2021/03/28 20:42:10;;;;;;;20.70;9.85;;;;;;;;;;5022771;28;20014;-72
2021/03/28 20:44:37;;;;;;;29.98;13.38;;;;;;;;;;5012584;28;20447;-71
2021/03/28 20:47:04;;;;;;;86.20;40.25;;;;;;;;;;4960327;28;20083;-70
2021/03/28 20:49:31;;;;;;;56.97;27.08;;;;;;;;;;5024312;28;20505;-70
2021/03/28 20:52:01;;;;;;;42.08;19.00;;;;;;;;;;5012129;28;20022;-72
2021/03/28 20:54:30;;;;;;;39.38;19.55;;;;;;;;;;5029903;28;20025;-73
2021/03/28 20:56:57;;;;;;;45.97;19.95;;;;;;;;;;5008502;28;20113;-72
2021/03/28 20:59:25;;;;;;;37.22;15.52;;;;;;;;;;5021572;28;20087;-72
2021/03/28 21:01:56;;;;;;;30.35;12.88;;;;;;;;;;5022136;28;20079;-71
2021/03/28 21:04:22;;;;;;;18.83;8.60;;;;;;;;;;5023767;28;20079;-70
2021/03/28 21:06:50;;;;;;;18.92;6.95;;;;;;;;;;5022476;28;20674;-71
2021/03/28 21:09:18;;;;;;;12.88;6.97;;;;;;;;;;5005223;28;20022;-72
2021/03/28 21:11:44;;;;;;;17.55;8.35;;;;;;;;;;5008413;28;20022;-71
2021/03/28 21:14:11;;;;;;;17.60;7.90;;;;;;;;;;5013247;28;20396;-71
2021/03/28 21:16:38;;;;;;;17.80;7.93;;;;;;;;;;4994616;28;20010;-70
2021/03/28 21:19:04;;;;;;;14.40;6.15;;;;;;;;;;5012119;28;20030;-70
2021/03/28 21:21:32;;;;;;;18.05;8.38;;;;;;;;;;5010395;28;20070;-70
2021/03/28 21:24:00;;;;;;;15.10;7.40;;;;;;;;;;5011874;28;20820;-70
2021/03/28 21:26:35;;;;;;;13.60;6.70;;;;;;;;;;4994405;28;20115;-70
2021/03/28 21:29:01;;;;;;;14.60;5.82;;;;;;;;;;5017034;28;20477;-70
2021/03/28 21:31:28;;;;;;;15.93;6.63;;;;;;;;;;5003558;28;20022;-71
2021/03/28 21:33:55;;;;;;;13.95;5.60;;;;;;;;;;5021447;28;20361;-70
2021/03/28 21:36:22;;;;;;;13.23;6.35;;;;;;;;;;5021503;28;20026;-69
2021/03/28 21:38:52;;;;;;;14.63;6.60;;;;;;;;;;5004492;28;20481;-69
2021/03/28 21:41:26;;;;;;;17.55;7.18;;;;;;;;;;5004160;28;20080;-70
2021/03/28 21:43:52;;;;;;;19.38;8.15;;;;;;;;;;5003586;28;20033;-69
2021/03/28 21:46:36;;;;;;;20.67;9.48;;;;;;;;;;5004469;28;20018;-68
2021/03/28 21:49:08;;;;;;;13.00;6.50;;;;;;;;;;5034186;28;20025;-69
2021/03/28 21:51:35;;;;;;;14.93;7.18;;;;;;;;;;5019244;28;20013;-70
2021/03/28 21:54:03;;;;;;;15.75;6.90;;;;;;;;;;5019073;28;20112;-72
2021/03/28 21:56:36;;;;;;;17.67;8.07;;;;;;;;;;5041599;28;20389;-69